This is the latest recevied weather packets stored in our database for station/object KF0PEC-15. If no packets are shown the sender has not sent any weather packets the latest 10 day(s).
| Time | Temp. | Humidity | Pressure | Rain* | Wind** | Luminosity | Snow |
|---|---|---|---|---|---|---|---|
| 1777498497 | 8.89° C | 71% | 1019.8 hPa | 0 mm | - | 147 W/m² | - |
| 1777497990 | 8.89° C | 72% | 1019.8 hPa | 0 mm | - | 138 W/m² | - |
| 1777497395 | 9.44° C | 69% | 1019.9 hPa | 0 mm | - | 111 W/m² | - |
| 1777496845 | 10° C | 71% | 1019.4 hPa | 0 mm | - | 977 W/m² | - |
| 1777496257 | 8.89° C | 71% | 1019.9 hPa | 0 mm | - | 196 W/m² | - |
| 1777495690 | 9.44° C | 74% | 1019.9 hPa | 0 mm | - | 117 W/m² | - |
| 1777495170 | 9.44° C | 72% | 1019.8 hPa | 0 mm | - | 165 W/m² | - |
| 1777494605 | 9.44° C | 76% | 1019.9 hPa | 0 mm | - | 485 W/m² | - |
| 1777494037 | 8.89° C | 78% | 1020.8 hPa | 0 mm | - | 678 W/m² | - |
| 1777493550 | 6.67° C | 87% | 1022.5 hPa | 0 mm | - | 564 W/m² | - |
| 1777493005 | 7.22° C | 86% | 1021.7 hPa | 0.51 mm | - | 877 W/m² | - |
| 1777492480 | 7.22° C | 84% | 1021.9 hPa | 0.25 mm | - | 677 W/m² | - |
| 1777491920 | 7.22° C | 84% | 1022.3 hPa | 0.25 mm | - | 596 W/m² | - |
| 1777491390 | 7.22° C | 84% | 1022 hPa | 0.51 mm | - | 132 W/m² | - |
| 1777490855 | 7.22° C | 84% | 1022 hPa | 2.54 mm | - | 756 W/m² | - |
| 1777490330 | 7.78° C | 77% | 1021.8 hPa | 1.52 mm | - | 267 W/m² | - |
| 1777489780 | 7.78° C | 70% | 1021.7 hPa | 0 mm | - | 346 W/m² | - |
| 1777489240 | 8.33° C | 70% | 1021.6 hPa | 0 mm | - | 465 W/m² | - |
| 1777488740 | 8.33° C | 70% | 1020.9 hPa | 0 mm | - | 105 W/m² | - |
| 1777488176 | 7.22° C | 73% | 1021.5 hPa | 0 mm | - | 263 W/m² | - |
| 1777487666 | 7.78° C | 74% | 1021.4 hPa | 0 mm | - | 571 W/m² | - |
| 1777487085 | 8.33° C | 71% | 1021 hPa | 0 mm | - | 822 W/m² | - |
| 1777486531 | 8.89° C | 70% | 1020.7 hPa | 0 mm | - | 171 W/m² | - |
| 1777486005 | 8.33° C | 70% | 1021 hPa | 0 mm | - | 247 W/m² | - |
| 1777485495 | 7.78° C | 71% | 1021.7 hPa | 0 mm | - | 413 W/m² | - |
* Rain latest hour (hover to see other rain measurements)
** Current wind speed in m/s (hover to see current wind gust speed)